Time;durP1;ratioP1;P1;durP2;ratioP2;P2;SDS_P1;SDS_P2;PMS_P1;PMS_P2;Temp;Humidity;BMP_temperature;BMP_pressure;BME280_temperature;BME280_humidity;BME280_pressure;Samples;Min_cycle;Max_cycle;Signal;HPM_P1;HPM_P2
2023/02/16 00:01:17;;;;;;;12.10;7.80;;;;;;;3.58;53.43;102871.77;106031;1270;1003610;-57
2023/02/16 00:03:47;;;;;;;13.20;7.40;;;;;;;3.58;53.49;102875.37;106206;1272;1002921;-56
2023/02/16 00:06:17;;;;;;;13.10;8.20;;;;;;;3.57;53.37;102875.50;106242;1272;1003789;-57
2023/02/16 00:08:49;;;;;;;12.40;7.40;;;;;;;3.55;53.45;102875.61;106980;1275;25347;-58
2023/02/16 00:14:21;;;;;;;12.20;7.50;;;;;;;3.54;53.73;102877.98;106985;1273;25328;-58
2023/02/16 00:16:49;;;;;;;18.70;7.70;;;;;;;3.58;53.81;102878.48;106949;1275;25243;-58
2023/02/16 00:19:22;;;;;;;13.20;6.80;;;;;;;3.65;53.87;102880.48;106005;1273;1002842;-58
2023/02/16 00:21:53;;;;;;;9.90;6.80;;;;;;;3.73;53.72;102878.56;107085;1270;24230;-58
2023/02/16 00:24:22;;;;;;;13.10;8.00;;;;;;;3.79;53.53;102882.23;106827;1276;22583;-58
2023/02/16 00:26:50;;;;;;;14.10;7.50;;;;;;;3.83;53.41;102875.54;106732;1270;22534;-58
2023/02/16 00:29:23;;;;;;;13.50;6.80;;;;;;;3.86;53.35;102873.93;106611;1276;25512;-58
2023/02/16 00:31:53;;;;;;;13.10;7.30;;;;;;;3.87;53.07;102873.63;106695;1270;22542;-58
2023/02/16 00:34:31;;;;;;;10.30;6.50;;;;;;;3.87;53.37;102873.13;106337;1276;25303;-58
2023/02/16 00:37:07;;;;;;;10.90;5.90;;;;;;;3.88;53.34;102878.82;106720;1271;25436;-58
2023/02/16 00:39:37;;;;;;;10.70;6.40;;;;;;;3.88;53.39;102877.82;106710;1273;22652;-58
2023/02/16 00:42:10;;;;;;;10.00;5.80;;;;;;;3.91;53.34;102874.48;106936;1270;25319;-58
2023/02/16 00:44:44;;;;;;;15.00;5.60;;;;;;;3.94;53.13;102873.77;106829;1276;25245;-58
2023/02/16 00:47:26;;;;;;;7.90;5.50;;;;;;;3.96;52.60;102866.96;106550;1270;22533;-58
2023/02/16 00:49:56;;;;;;;9.80;5.30;;;;;;;3.96;52.23;102860.94;106914;1272;22526;-58
2023/02/16 00:52:34;;;;;;;9.50;4.90;;;;;;;3.93;52.15;102862.55;106953;1276;23001;-58
2023/02/16 00:55:11;;;;;;;7.90;4.50;;;;;;;3.89;52.21;102864.09;106102;1270;1003065;-58
2023/02/16 00:57:56;;;;;;;8.80;4.50;;;;;;;3.86;52.02;102865.16;106900;1270;22589;-58
2023/02/16 01:00:37;;;;;;;6.70;4.70;;;;;;;3.84;52.17;102860.63;106783;1274;22624;-57
2023/02/16 01:03:08;;;;;;;7.90;4.60;;;;;;;3.86;52.44;102861.22;106047;1271;1003881;-59
2023/02/16 01:05:36;;;;;;;7.50;4.90;;;;;;;3.88;52.55;102859.60;106777;1270;23909;-59
2023/02/16 01:11:08;;;;;;;9.90;5.20;;;;;;;3.97;52.94;102856.66;105893;1275;1003262;-58
2023/02/16 01:13:46;;;;;;;10.40;5.70;;;;;;;4.00;52.81;102853.39;106642;1273;24202;-59
2023/02/16 01:16:21;;;;;;;8.10;5.40;;;;;;;4.03;52.72;102846.77;106658;1270;25488;-58
2023/02/16 01:18:50;;;;;;;8.70;5.10;;;;;;;4.07;52.73;102847.09;106642;1271;22534;-58
2023/02/16 01:21:23;;;;;;;7.40;5.30;;;;;;;4.08;52.56;102847.16;106705;1270;25341;-58
2023/02/16 01:23:53;;;;;;;7.70;5.20;;;;;;;4.06;53.06;102847.06;106827;1254;25303;-58
2023/02/16 01:26:22;;;;;;;8.60;5.20;;;;;;;4.02;53.46;102846.77;106821;1269;25371;-58
2023/02/16 01:28:50;;;;;;;10.10;6.10;;;;;;;3.97;53.99;102846.91;106841;1276;25344;-59
2023/02/16 01:31:20;;;;;;;8.60;5.10;;;;;;;3.94;54.19;102845.77;106933;1270;25282;-59
2023/02/16 01:33:49;;;;;;;8.00;5.50;;;;;;;3.95;54.55;102847.67;106311;1270;1002928;-58
2023/02/16 01:36:42;;;;;;;10.40;6.60;;;;;;;3.95;54.57;102849.56;106152;1255;1003694;-58
2023/02/16 01:39:12;;;;;;;10.20;6.20;;;;;;;3.96;54.58;102841.20;106183;1271;1003007;-58
2023/02/16 01:41:47;;;;;;;8.10;5.30;;;;;;;3.98;54.75;102840.59;105971;1276;1002902;-58
2023/02/16 01:44:20;;;;;;;7.80;5.10;;;;;;;3.98;54.74;102841.44;106993;1270;25334;-58
2023/02/16 01:46:56;;;;;;;8.50;5.30;;;;;;;3.93;54.80;102843.13;106184;1273;1003598;-58
2023/02/16 01:49:26;;;;;;;7.50;4.30;;;;;;;3.90;55.00;102842.35;106938;1270;25385;-58
2023/02/16 01:52:00;;;;;;;8.30;5.40;;;;;;;3.89;55.11;102836.62;106193;1270;1003553;-58
2023/02/16 01:54:52;;;;;;;7.20;5.10;;;;;;;3.88;55.17;102838.63;106616;1275;25408;-58
2023/02/16 01:57:27;;;;;;;7.90;4.50;;;;;;;3.88;55.34;102843.11;106724;1276;25970;-59
2023/02/16 01:59:56;;;;;;;6.20;4.20;;;;;;;3.88;55.57;102843.44;107021;1270;25332;-58
2023/02/16 02:02:28;;;;;;;6.40;4.40;;;;;;;3.88;55.46;102843.95;107126;1267;25375;-58
2023/02/16 02:07:54;;;;;;;6.00;4.20;;;;;;;3.88;55.47;102840.88;107071;1267;25417;-58
2023/02/16 02:10:27;;;;;;;5.60;4.20;;;;;;;3.90;55.63;102837.17;107289;1267;25449;-58
2023/02/16 02:13:19;;;;;;;6.10;4.20;;;;;;;3.92;55.54;102831.08;106397;1267;1003055;-58
2023/02/16 02:15:48;;;;;;;6.50;3.30;;;;;;;3.92;55.63;102835.18;106985;1271;22632;-58
2023/02/16 02:18:17;;;;;;;7.00;3.90;;;;;;;3.91;55.60;102840.65;106808;1267;25402;-58
2023/02/16 02:24:27;;;;;;;5.30;4.00;;;;;;;3.91;55.51;102849.24;106815;1262;25369;-58
2023/02/16 02:27:06;;;;;;;4.70;3.10;;;;;;;3.93;55.29;102852.05;106992;1269;25376;-58
2023/02/16 02:29:53;;;;;;;4.80;3.80;;;;;;;3.93;55.10;102849.64;106100;1270;1003328;-58
2023/02/16 02:32:40;;;;;;;6.50;3.60;;;;;;;3.92;54.92;102854.09;106892;1269;26517;-58
2023/02/16 02:35:18;;;;;;;5.30;3.50;;;;;;;3.91;54.70;102857.47;107190;1267;22568;-58
2023/02/16 02:38:01;;;;;;;7.10;4.80;;;;;;;3.89;54.54;102853.77;107207;1267;25356;-58
2023/02/16 02:40:40;;;;;;;6.00;4.00;;;;;;;3.87;54.37;102853.38;106752;1273;25377;-57
2023/02/16 02:43:16;;;;;;;5.10;3.50;;;;;;;3.84;54.53;102852.75;106385;1266;1003080;-58
2023/02/16 02:45:56;;;;;;;5.20;3.30;;;;;;;3.84;54.56;102855.84;107109;1266;25393;-57
2023/02/16 02:48:30;;;;;;;4.90;3.70;;;;;;;3.85;54.28;102858.79;106119;1267;1003213;-58
2023/02/16 03:00:46;;;;;;;6.40;4.50;;;;;;;3.82;54.74;102865.54;105643;1283;25339;-58
2023/02/16 03:03:30;;;;;;;5.00;3.70;;;;;;;3.81;54.91;102864.48;105078;1283;1003224;-58
2023/02/16 03:06:04;;;;;;;4.50;3.30;;;;;;;3.84;54.91;102860.80;105808;1283;25374;-57
2023/02/16 03:08:36;;;;;;;5.90;3.90;;;;;;;3.86;54.91;102862.95;105628;1283;22553;-58
2023/02/16 03:14:06;;;;;;;6.40;4.10;;;;;;;3.89;54.68;102868.94;104897;1283;1002835;-58
2023/02/16 03:16:37;;;;;;;6.30;4.20;;;;;;;3.88;54.66;102868.68;105773;1283;25313;-58
2023/02/16 03:30:20;;;;;;;7.50;4.10;;;;;;;3.98;54.93;102876.47;106066;1283;25389;-57
2023/02/16 03:32:49;;;;;;;4.90;3.50;;;;;;;4.01;54.83;102876.93;105204;1280;1003395;-58
2023/02/16 03:35:18;;;;;;;6.10;3.40;;;;;;;4.02;54.78;102877.14;106885;1267;25370;-57
2023/02/16 03:37:46;;;;;;;7.80;3.90;;;;;;;4.01;54.79;102877.13;106959;1267;24438;-58
2023/02/16 03:40:27;;;;;;;4.80;3.60;;;;;;;3.99;54.63;102876.35;106898;1267;25481;-57
2023/02/16 03:43:00;;;;;;;6.30;4.40;;;;;;;3.97;54.54;102878.84;106939;1267;23822;-58
2023/02/16 03:45:30;;;;;;;8.10;4.30;;;;;;;3.95;54.90;102876.15;107059;1267;22539;-58
2023/02/16 03:48:18;;;;;;;5.80;3.40;;;;;;;3.94;55.03;102876.48;106791;1270;23286;-58
2023/02/16 03:50:46;;;;;;;6.00;3.70;;;;;;;4.00;54.90;102876.55;105995;1273;1002914;-58
2023/02/16 03:53:16;;;;;;;7.10;4.00;;;;;;;4.02;54.87;102882.48;106802;1272;25379;-58
2023/02/16 03:55:47;;;;;;;5.50;3.70;;;;;;;4.02;54.60;102882.98;106785;1268;25363;-58
2023/02/16 03:58:18;;;;;;;6.60;4.00;;;;;;;4.00;54.67;102883.41;105952;1270;1003087;-58
2023/02/16 04:00:48;;;;;;;7.70;4.20;;;;;;;3.96;54.73;102883.45;105947;1270;1003235;-57
2023/02/16 04:03:18;;;;;;;6.60;4.00;;;;;;;3.94;54.81;102880.27;106759;1270;25349;-58
2023/02/16 04:05:47;;;;;;;5.60;3.50;;;;;;;3.93;55.11;102881.09;106109;1268;1002884;-58
2023/02/16 04:08:17;;;;;;;5.20;3.70;;;;;;;3.94;54.91;102882.52;106074;1270;1003771;-58
2023/02/16 04:10:47;;;;;;;8.60;4.60;;;;;;;3.94;55.08;102880.62;106737;1273;23253;-57
2023/02/16 04:13:16;;;;;;;6.70;4.00;;;;;;;3.93;55.12;102882.63;106032;1269;1003068;-57
2023/02/16 04:15:45;;;;;;;6.00;3.80;;;;;;;3.94;55.03;102876.67;106719;1269;25352;-57
2023/02/16 04:18:13;;;;;;;5.10;3.80;;;;;;;3.97;55.10;102873.66;106146;1269;1003016;-57
2023/02/16 04:20:41;;;;;;;6.60;4.20;;;;;;;3.99;54.94;102878.08;107091;1266;25366;-58
2023/02/16 04:23:10;;;;;;;6.00;4.20;;;;;;;3.99;55.11;102877.55;107248;1265;25396;-58
2023/02/16 04:25:38;;;;;;;5.50;4.30;;;;;;;3.99;55.33;102880.27;107240;1267;25331;-58
2023/02/16 04:28:07;;;;;;;6.30;4.50;;;;;;;3.98;55.26;102875.98;106910;1267;25536;-58
2023/02/16 04:30:36;;;;;;;5.90;3.60;;;;;;;3.99;55.55;102877.88;107172;1265;22649;-57
2023/02/16 04:33:05;;;;;;;7.10;4.50;;;;;;;4.00;55.42;102878.44;107188;1267;25356;-58
2023/02/16 04:35:34;;;;;;;5.80;4.20;;;;;;;4.04;55.47;102874.13;107140;1266;25399;-58
2023/02/16 04:38:04;;;;;;;5.60;4.20;;;;;;;4.06;55.17;102873.52;107119;1266;22573;-58
2023/02/16 04:40:34;;;;;;;7.30;4.30;;;;;;;4.05;54.94;102874.17;107106;1270;25433;-58
2023/02/16 04:43:03;;;;;;;5.60;3.90;;;;;;;4.03;54.77;102876.85;106916;1267;25353;-57
2023/02/16 04:45:31;;;;;;;7.80;4.10;;;;;;;4.01;54.97;102875.59;107059;1267;25383;-57
2023/02/16 04:48:00;;;;;;;12.00;4.50;;;;;;;4.00;54.92;102870.52;107255;1267;25338;-57
2023/02/16 04:50:30;;;;;;;5.70;3.60;;;;;;;4.02;55.03;102874.56;107165;1266;25363;-58
2023/02/16 04:52:59;;;;;;;6.10;4.30;;;;;;;4.05;55.40;102874.34;107037;1273;22520;-57
2023/02/16 04:55:28;;;;;;;5.80;4.20;;;;;;;4.08;55.30;102879.97;107143;1268;22524;-58
2023/02/16 04:57:57;;;;;;;5.20;4.10;;;;;;;4.11;55.42;102883.70;106214;1270;1002360;-58
2023/02/16 05:00:25;;;;;;;7.60;4.50;;;;;;;4.12;55.07;102881.30;106530;1267;1003710;-58
2023/02/16 05:02:54;;;;;;;5.70;4.30;;;;;;;4.09;55.13;102882.77;107023;1267;25408;-58
2023/02/16 05:05:22;;;;;;;6.30;4.50;;;;;;;4.08;55.15;102884.76;107187;1253;25366;-58
2023/02/16 05:07:51;;;;;;;9.00;4.30;;;;;;;4.07;55.17;102886.11;106388;1251;1003053;-57
2023/02/16 05:10:21;;;;;;;6.00;4.50;;;;;;;4.08;55.38;102890.10;107028;1267;25399;-57
2023/02/16 05:16:15;;;;;;;5.80;3.90;;;;;;;4.14;55.46;102889.64;103746;1298;545015;-58
2023/02/16 05:18:49;;;;;;;5.00;4.00;;;;;;;4.17;55.31;102884.26;106184;1282;25400;-58
2023/02/16 05:21:32;;;;;;;7.00;4.60;;;;;;;4.19;55.03;102886.06;105105;1289;1003556;-58
2023/02/16 05:24:02;;;;;;;9.10;4.70;;;;;;;4.21;54.82;102889.38;105275;1285;1003451;-58
2023/02/16 05:26:32;;;;;;;6.10;4.20;;;;;;;4.22;54.94;102885.31;105698;1286;22541;-57
2023/02/16 05:29:00;;;;;;;5.20;4.30;;;;;;;4.21;54.85;102885.78;105407;1280;1003368;-57
2023/02/16 05:31:31;;;;;;;5.40;4.50;;;;;;;4.21;54.65;102889.21;106319;1272;25369;-57
2023/02/16 05:33:59;;;;;;;6.80;4.40;;;;;;;4.20;54.62;102884.73;106340;1280;25533;-58
2023/02/16 05:36:28;;;;;;;5.50;4.30;;;;;;;4.21;54.75;102883.35;105564;1283;1002822;-57
2023/02/16 05:38:56;;;;;;;7.90;4.90;;;;;;;4.22;54.66;102889.96;105846;1276;1003055;-57
2023/02/16 05:41:25;;;;;;;6.10;4.40;;;;;;;4.23;54.93;102888.80;105793;1275;1003678;-58
2023/02/16 05:43:58;;;;;;;8.30;4.20;;;;;;;4.24;54.93;102893.98;106532;1276;23526;-58
2023/02/16 05:46:28;;;;;;;6.30;4.40;;;;;;;4.24;54.69;102891.89;105586;1274;1003193;-59
2023/02/16 05:48:56;;;;;;;5.70;4.40;;;;;;;4.22;54.58;102888.05;106526;1279;24244;-57
2023/02/16 05:51:25;;;;;;;8.90;4.20;;;;;;;4.21;54.65;102893.33;106516;1276;26627;-57
2023/02/16 05:53:54;;;;;;;5.80;4.70;;;;;;;4.19;54.38;102893.42;106595;1276;24283;-57
2023/02/16 05:56:27;;;;;;;7.70;4.90;;;;;;;4.16;54.68;102889.88;106612;1273;25360;-58
2023/02/16 05:58:58;;;;;;;5.90;4.20;;;;;;;4.16;54.68;102884.56;106772;1273;22524;-58
2023/02/16 06:01:27;;;;;;;5.90;4.60;;;;;;;4.20;54.86;102888.31;106859;1273;22519;-58
2023/02/16 06:03:56;;;;;;;7.20;4.50;;;;;;;4.22;54.74;102894.23;106837;1270;25341;-58
2023/02/16 06:06:25;;;;;;;5.30;4.20;;;;;;;4.22;54.78;102893.55;106833;1270;25360;-58
2023/02/16 06:08:53;;;;;;;6.50;4.70;;;;;;;4.22;54.90;102896.47;106854;1270;25392;-58
2023/02/16 06:11:34;;;;;;;7.40;4.90;;;;;;;4.20;54.92;102894.69;106801;1270;22509;-58
2023/02/16 06:14:10;;;;;;;5.30;4.60;;;;;;;4.20;54.78;102896.41;106061;1270;1003556;-58
2023/02/16 06:16:39;;;;;;;10.60;5.50;;;;;;;4.22;55.04;102899.23;106802;1270;22519;-57
2023/02/16 06:19:10;;;;;;;7.10;4.60;;;;;;;4.27;54.98;102896.31;106709;1273;25371;-58
2023/02/16 06:21:39;;;;;;;7.80;4.50;;;;;;;4.31;54.93;102893.73;106833;1273;25337;-57
2023/02/16 06:24:09;;;;;;;9.80;5.10;;;;;;;4.35;55.06;102898.50;106801;1270;22611;-59
2023/02/16 06:26:38;;;;;;;7.30;4.90;;;;;;;4.37;54.77;102904.79;106021;1270;1002992;-58
2023/02/16 06:29:06;;;;;;;6.80;4.60;;;;;;;4.38;55.05;102904.83;106083;1270;1003124;-58
2023/02/16 06:31:35;;;;;;;5.70;4.20;;;;;;;4.38;54.85;102906.71;106861;1270;25359;-58
2023/02/16 06:34:04;;;;;;;5.70;4.70;;;;;;;4.37;54.96;102906.67;106123;1270;1003595;-58
2023/02/16 06:36:33;;;;;;;8.20;4.60;;;;;;;4.37;55.12;102903.73;106078;1276;1016072;-58
2023/02/16 06:39:01;;;;;;;7.20;4.20;;;;;;;4.39;55.05;102901.75;106847;1270;25359;-57
2023/02/16 06:41:36;;;;;;;6.60;4.70;;;;;;;4.40;54.93;102905.91;106787;1270;25372;-58
2023/02/16 06:44:07;;;;;;;5.90;4.20;;;;;;;4.41;54.99;102904.23;106749;1273;25330;-58
2023/02/16 06:46:35;;;;;;;9.10;4.50;;;;;;;4.43;54.92;102906.71;106653;1276;22577;-57
2023/02/16 06:49:04;;;;;;;6.40;4.90;;;;;;;4.43;54.97;102906.20;105885;1270;1016097;-58
2023/02/16 06:51:33;;;;;;;8.20;4.60;;;;;;;4.45;55.03;102904.37;106526;1278;24295;-58
2023/02/16 06:54:02;;;;;;;6.50;4.70;;;;;;;4.47;54.90;102903.08;106010;1270;1003808;-58
2023/02/16 06:56:30;;;;;;;6.20;4.40;;;;;;;4.48;54.92;102903.64;106578;1270;22572;-58
2023/02/16 06:58:59;;;;;;;19.90;5.50;;;;;;;4.49;54.95;102896.09;106783;1270;25352;-58
2023/02/16 07:01:28;;;;;;;8.50;4.40;;;;;;;4.51;55.20;102900.51;106786;1263;25561;-58
2023/02/16 07:03:56;;;;;;;5.20;4.10;;;;;;;4.53;55.15;102902.80;105954;1270;1003187;-58
2023/02/16 07:06:26;;;;;;;5.70;4.20;;;;;;;4.55;55.42;102899.79;106075;1270;1002833;-58
2023/02/16 07:08:55;;;;;;;7.60;4.40;;;;;;;4.60;55.39;102900.84;106778;1270;22527;-57
2023/02/16 07:11:24;;;;;;;7.50;4.80;;;;;;;4.66;55.36;102897.63;106843;1270;25398;-57
2023/02/16 07:13:52;;;;;;;7.60;5.00;;;;;;;4.70;55.19;102898.10;106806;1270;25470;-58
2023/02/16 07:16:22;;;;;;;8.90;5.40;;;;;;;4.74;55.12;102895.50;106363;1277;22547;-58
2023/02/16 07:18:51;;;;;;;8.60;5.40;;;;;;;4.76;54.99;102900.91;106635;1275;25426;-58
2023/02/16 07:21:20;;;;;;;6.00;4.60;;;;;;;4.78;55.02;102899.60;105800;1273;1003123;-57
2023/02/16 07:23:48;;;;;;;10.60;5.40;;;;;;;4.80;55.17;102896.59;106582;1270;25558;-58
2023/02/16 07:26:18;;;;;;;8.00;5.30;;;;;;;4.84;55.27;102894.48;106547;1270;25352;-58
2023/02/16 07:28:46;;;;;;;9.70;5.50;;;;;;;4.91;55.37;102896.65;106636;1270;25360;-57
2023/02/16 07:31:16;;;;;;;8.20;5.50;;;;;;;4.98;55.01;102897.73;106744;1270;25358;-58
2023/02/16 07:33:44;;;;;;;7.30;5.90;;;;;;;5.01;54.83;102898.52;105682;1277;1003144;-58
2023/02/16 07:36:13;;;;;;;7.90;6.00;;;;;;;5.02;54.75;102896.84;106757;1270;25426;-58
2023/02/16 07:38:42;;;;;;;8.30;6.00;;;;;;;5.06;54.69;102894.55;106775;1270;25514;-58
2023/02/16 07:41:11;;;;;;;8.40;6.40;;;;;;;5.10;54.34;102891.09;106701;1273;25889;-58
2023/02/16 07:43:41;;;;;;;11.30;8.20;;;;;;;5.15;54.24;102897.28;106447;1274;23874;-58
2023/02/16 07:46:10;;;;;;;12.50;7.80;;;;;;;5.20;54.16;102892.64;106767;1270;25462;-57
2023/02/16 07:48:39;;;;;;;8.90;6.50;;;;;;;5.26;53.79;102899.57;106851;1270;25360;-58
2023/02/16 07:51:08;;;;;;;7.60;5.60;;;;;;;5.31;53.66;102887.70;106641;1271;25360;-58
2023/02/16 07:53:36;;;;;;;6.90;4.60;;;;;;;5.36;53.42;102891.30;106748;1277;25437;-58
2023/02/16 07:56:05;;;;;;;8.20;5.50;;;;;;;5.42;53.24;102891.52;106689;1273;25443;-57
2023/02/16 07:58:33;;;;;;;7.90;5.20;;;;;;;5.50;52.84;102889.52;106800;1270;25373;-57
2023/02/16 08:01:09;;;;;;;7.10;5.00;;;;;;;5.58;52.62;102889.29;106121;1272;1002934;-59
2023/02/16 08:03:38;;;;;;;7.70;5.10;;;;;;;5.64;52.13;102888.11;106772;1272;22533;-57
2023/02/16 08:06:06;;;;;;;6.70;5.10;;;;;;;5.64;51.85;102889.80;106797;1265;25361;-57
2023/02/16 08:08:35;;;;;;;6.60;4.90;;;;;;;5.58;51.63;102887.72;106818;1270;25260;-57
2023/02/16 08:11:21;;;;;;;8.10;4.90;;;;;;;5.52;51.69;102886.68;106805;1270;22528;-58
2023/02/16 08:13:49;;;;;;;6.70;4.90;;;;;;;5.51;52.00;102888.20;106776;1270;22537;-58
2023/02/16 08:16:22;;;;;;;5.80;4.80;;;;;;;5.54;51.94;102888.63;106092;1270;1003577;-57
2023/02/16 08:18:51;;;;;;;5.80;5.20;;;;;;;5.56;51.54;102887.67;106516;1275;25439;-57
2023/02/16 08:21:22;;;;;;;9.00;5.40;;;;;;;5.57;51.61;102892.71;106754;1275;25513;-57
2023/02/16 08:24:02;;;;;;;6.70;5.00;;;;;;;5.58;51.57;102895.15;105861;1276;1003525;-57
2023/02/16 08:26:37;;;;;;;6.00;4.90;;;;;;;5.59;51.69;102900.86;107057;1267;22523;-57
2023/02/16 08:29:06;;;;;;;8.10;5.40;;;;;;;5.65;51.53;102900.54;106117;1267;1003825;-57
2023/02/16 08:31:36;;;;;;;8.30;5.00;;;;;;;5.69;51.40;102903.95;106128;1266;1003783;-57
2023/02/16 08:34:05;;;;;;;8.00;5.80;;;;;;;5.73;51.26;102905.79;107258;1267;24258;-59
2023/02/16 08:36:37;;;;;;;7.40;5.20;;;;;;;5.77;51.34;102906.92;106988;1255;25533;-58
2023/02/16 08:39:14;;;;;;;7.70;5.60;;;;;;;5.77;51.02;102905.91;107121;1269;22656;-58
2023/02/16 08:41:43;;;;;;;8.50;5.60;;;;;;;5.73;51.19;102905.95;107318;1259;27437;-58
2023/02/16 08:44:11;;;;;;;7.30;5.60;;;;;;;5.72;51.51;102908.70;106693;1268;1002566;-58
2023/02/16 08:46:41;;;;;;;8.90;5.90;;;;;;;5.74;51.83;102908.92;107197;1272;25379;-57
2023/02/16 08:49:10;;;;;;;6.80;5.40;;;;;;;5.78;51.69;102909.40;107159;1270;22537;-58
2023/02/16 08:51:44;;;;;;;8.00;5.50;;;;;;;5.80;51.43;102910.33;107205;1268;22523;-58
2023/02/16 08:54:20;;;;;;;9.90;5.50;;;;;;;5.81;51.41;102906.06;106423;1267;1003252;-58
2023/02/16 08:56:49;;;;;;;6.20;5.30;;;;;;;5.85;51.02;102899.66;106328;1267;1003108;-58
2023/02/16 08:59:19;;;;;;;6.10;4.80;;;;;;;5.92;50.61;102899.02;106858;1264;25472;-58
2023/02/16 09:01:48;;;;;;;5.50;4.40;;;;;;;6.02;50.08;102905.19;107255;1267;24240;-57
2023/02/16 09:04:17;;;;;;;6.00;4.60;;;;;;;6.09;49.26;102910.06;107143;1261;26688;-57
2023/02/16 09:06:47;;;;;;;6.40;4.70;;;;;;;6.10;49.01;102908.89;107049;1262;22553;-59
2023/02/16 09:09:17;;;;;;;7.50;4.90;;;;;;;6.09;48.94;102910.58;106014;1276;1003292;-58
2023/02/16 09:11:45;;;;;;;8.20;5.10;;;;;;;6.11;48.61;102908.73;107249;1260;25371;-57
2023/02/16 09:14:16;;;;;;;6.80;5.00;;;;;;;6.10;48.39;102905.79;106340;1268;1002824;-58
2023/02/16 09:16:45;;;;;;;7.10;4.80;;;;;;;6.09;48.24;102909.23;107020;1266;25379;-58
2023/02/16 09:19:15;;;;;;;8.00;4.60;;;;;;;6.10;48.21;102907.33;106313;1267;1003169;-57
2023/02/16 09:21:43;;;;;;;5.10;4.30;;;;;;;6.13;48.22;102911.91;106100;1267;1014671;-58
2023/02/16 09:24:14;;;;;;;6.70;5.10;;;;;;;6.17;48.03;102912.73;107149;1255;25526;-58
2023/02/16 09:27:01;;;;;;;5.90;4.30;;;;;;;6.25;48.34;102909.54;107277;1256;22584;-58
2023/02/16 09:29:30;;;;;;;5.00;3.70;;;;;;;6.33;48.06;102914.96;106969;1267;22919;-58
2023/02/16 09:31:59;;;;;;;5.50;3.80;;;;;;;6.43;47.66;102911.27;106446;1268;1002913;-58
2023/02/16 09:34:28;;;;;;;5.90;3.90;;;;;;;6.53;47.24;102911.05;106813;1274;24271;-58
2023/02/16 09:36:57;;;;;;;4.10;3.70;;;;;;;6.64;46.71;102910.66;106914;1272;24302;-58
2023/02/16 09:39:25;;;;;;;4.70;3.70;;;;;;;6.73;46.21;102913.00;107191;1267;25300;-58
2023/02/16 09:41:54;;;;;;;4.00;3.10;;;;;;;6.80;45.97;102913.20;107096;1266;25414;-58
2023/02/16 09:44:36;;;;;;;4.40;3.30;;;;;;;6.87;45.44;102913.91;106189;1270;1002875;-58
2023/02/16 09:47:12;;;;;;;4.60;3.40;;;;;;;6.92;44.85;102915.10;107164;1268;22555;-58
2023/02/16 09:49:41;;;;;;;4.30;3.10;;;;;;;6.96;44.73;102912.27;106290;1271;1003519;-58
2023/02/16 09:52:42;;;;;;;3.90;3.00;;;;;;;7.00;44.63;102912.56;107225;1268;22603;-58
2023/02/16 09:55:15;;;;;;;5.00;3.20;;;;;;;7.05;44.17;102911.12;106040;1271;1003007;-58
2023/02/16 09:58:03;;;;;;;4.80;3.30;;;;;;;7.08;44.13;102907.40;107100;1272;23441;-58
2023/02/16 10:00:31;;;;;;;5.80;3.60;;;;;;;7.12;44.20;102905.27;107215;1259;22517;-58
2023/02/16 10:03:12;;;;;;;4.50;3.50;;;;;;;7.15;44.32;102901.39;107321;1252;22530;-58
2023/02/16 10:05:59;;;;;;;4.80;3.50;;;;;;;7.18;44.39;102897.52;107006;1267;22517;-57
2023/02/16 10:08:36;;;;;;;7.20;3.80;;;;;;;7.20;44.44;102894.45;106951;1274;25421;-57
2023/02/16 10:11:45;;;;;;;6.10;4.20;;;;;;;7.23;44.63;102888.84;106283;1268;1002978;-58
2023/02/16 10:14:24;;;;;;;4.90;3.60;;;;;;;7.26;44.76;102888.23;106453;1260;1015581;-58
2023/02/16 10:17:15;;;;;;;6.80;4.10;;;;;;;7.30;44.99;102888.33;106210;1262;1003048;-58
2023/02/16 10:20:04;;;;;;;5.60;4.30;;;;;;;7.34;45.08;102884.63;106098;1274;1003066;-57
2023/02/16 10:23:12;;;;;;;6.40;4.20;;;;;;;7.38;45.26;102885.08;106790;1272;22547;-58
2023/02/16 10:25:56;;;;;;;5.40;4.30;;;;;;;7.43;45.22;102883.98;106698;1279;25396;-57
2023/02/16 10:28:45;;;;;;;7.30;3.80;;;;;;;7.46;45.28;102887.00;105850;1264;1003296;-58
2023/02/16 10:31:19;;;;;;;5.90;3.70;;;;;;;7.50;45.37;102884.34;106434;1271;25347;-58
2023/02/16 10:34:36;;;;;;;5.40;3.50;;;;;;;7.51;45.38;102882.48;106513;1275;25314;-58
2023/02/16 10:38:00;;;;;;;5.60;4.00;;;;;;;7.51;45.52;102876.25;106048;1279;25360;-58
2023/02/16 10:40:34;;;;;;;5.00;4.00;;;;;;;7.41;45.88;102873.60;105879;1277;22540;-58
2023/02/16 10:43:17;;;;;;;4.80;3.60;;;;;;;7.40;45.96;102876.33;105035;1280;1003026;-58
2023/02/16 10:45:49;;;;;;;4.10;3.50;;;;;;;7.50;45.97;102875.88;105912;1277;22577;-58
2023/02/16 10:48:20;;;;;;;5.60;4.00;;;;;;;7.55;46.05;102873.06;105872;1281;22619;-57
2023/02/16 10:51:04;;;;;;;7.00;3.90;;;;;;;7.63;45.89;102871.02;105772;1289;24417;-58
2023/02/16 10:53:36;;;;;;;5.10;3.90;;;;;;;7.64;46.04;102871.40;105775;1285;25362;-58
2023/02/16 10:56:19;;;;;;;5.30;4.00;;;;;;;7.66;46.17;102869.72;105700;1280;22667;-57
2023/02/16 10:58:52;;;;;;;6.80;4.40;;;;;;;7.66;46.14;102866.09;105789;1280;24399;-59
2023/02/16 11:01:29;;;;;;;5.50;3.60;;;;;;;7.67;46.03;102862.48;105957;1274;24303;-58
2023/02/16 11:03:57;;;;;;;6.90;4.20;;;;;;;7.68;46.19;102857.84;105890;1274;22561;-58
2023/02/16 11:06:26;;;;;;;5.70;4.10;;;;;;;7.68;46.17;102854.89;105934;1283;25438;-57
2023/02/16 11:08:59;;;;;;;5.80;4.10;;;;;;;7.68;46.08;102854.23;105642;1286;25377;-57
2023/02/16 11:11:38;;;;;;;7.00;4.20;;;;;;;7.67;46.28;102847.96;105907;1282;22628;-58
2023/02/16 11:14:22;;;;;;;6.90;4.30;;;;;;;7.66;46.23;102844.68;106016;1279;23408;-58
2023/02/16 11:17:15;;;;;;;7.20;4.60;;;;;;;7.64;46.34;102839.44;106361;1267;23006;-57
2023/02/16 11:19:56;;;;;;;5.80;4.40;;;;;;;7.64;46.28;102837.89;106423;1263;22695;-58
2023/02/16 11:22:30;;;;;;;7.10;4.70;;;;;;;7.64;46.36;102838.23;105719;1268;1003253;-57
2023/02/16 11:25:25;;;;;;;5.30;4.70;;;;;;;7.65;46.34;102836.52;106408;1266;25371;-57
2023/02/16 11:27:59;;;;;;;5.80;4.60;;;;;;;7.66;46.37;102835.16;105503;1272;1003409;-58
2023/02/16 11:30:37;;;;;;;7.60;4.70;;;;;;;7.68;46.50;102832.09;106559;1270;22781;-56
2023/02/16 11:33:23;;;;;;;5.20;4.40;;;;;;;7.68;46.70;102830.39;106234;1268;1003076;-57
2023/02/16 11:35:51;;;;;;;6.00;4.60;;;;;;;7.69;46.93;102826.95;106857;1268;25469;-59
2023/02/16 11:38:28;;;;;;;6.60;4.80;;;;;;;7.70;47.04;102818.68;106719;1260;23864;-57
2023/02/16 11:40:57;;;;;;;6.80;4.90;;;;;;;7.72;47.16;102815.96;106706;1262;1003115;-57
2023/02/16 11:43:27;;;;;;;6.60;5.00;;;;;;;7.75;47.19;102812.21;106092;1269;1003785;-57
2023/02/16 11:45:57;;;;;;;5.40;4.50;;;;;;;7.76;47.26;102809.65;106698;1271;26498;-57
2023/02/16 11:48:28;;;;;;;8.60;4.70;;;;;;;7.79;46.81;102806.62;106852;1268;22527;-57
2023/02/16 11:51:05;;;;;;;5.90;4.60;;;;;;;7.82;46.82;102799.76;106924;1266;22502;-57
2023/02/16 11:53:36;;;;;;;6.60;4.60;;;;;;;7.83;47.07;102794.77;106806;1271;22540;-57
2023/02/16 11:56:26;;;;;;;7.30;5.10;;;;;;;7.85;46.72;102790.84;106992;1259;23972;-58
2023/02/16 11:59:23;;;;;;;7.40;5.00;;;;;;;7.88;46.84;102794.53;106914;1266;24360;-58
2023/02/16 12:02:29;;;;;;;7.00;4.80;;;;;;;7.90;46.85;102791.48;106850;1260;26627;-57
2023/02/16 12:05:16;;;;;;;7.00;4.80;;;;;;;7.94;46.72;102784.65;105997;1268;1003628;-58
2023/02/16 12:07:57;;;;;;;6.40;4.10;;;;;;;7.98;47.23;102780.77;107165;1260;26607;-58
2023/02/16 12:10:52;;;;;;;5.30;4.20;;;;;;;8.03;47.11;102779.66;106275;1266;1003639;-58
2023/02/16 12:13:23;;;;;;;4.80;3.80;;;;;;;8.08;46.77;102779.41;106924;1267;25351;-58
2023/02/16 12:16:04;;;;;;;4.50;4.10;;;;;;;8.12;47.08;102774.31;106519;1260;1002631;-58
2023/02/16 12:18:54;;;;;;;5.50;3.70;;;;;;;8.16;47.33;102772.33;106978;1269;24254;-57
2023/02/16 12:21:27;;;;;;;6.20;4.20;;;;;;;8.20;47.36;102772.93;107101;1267;22637;-58
2023/02/16 12:24:26;;;;;;;5.60;4.30;;;;;;;8.24;47.01;102770.77;107202;1259;23403;-58
2023/02/16 12:27:03;;;;;;;5.80;3.80;;;;;;;8.27;46.82;102776.20;106812;1260;25586;-58
2023/02/16 12:30:09;;;;;;;5.60;3.70;;;;;;;8.30;46.72;102771.92;106643;1274;25473;-57